sensor_id;sensor_type;location;lat;lon;timestamp;pressure;altitude;pressure_sealevel;temperature;humidity
56831;BME280;42713;42.676;23.352;2023-02-15T00:01:14;95979.94;;;1.37;71.61
56831;BME280;42713;42.676;23.352;2023-02-15T00:03:40;95971.84;;;1.32;72.19
56831;BME280;42713;42.676;23.352;2023-02-15T00:06:05;95970.69;;;1.26;72.48
56831;BME280;42713;42.676;23.352;2023-02-15T00:08:31;95973.13;;;1.28;72.52
56831;BME280;42713;42.676;23.352;2023-02-15T00:11:11;95980.72;;;1.37;72.42
56831;BME280;42713;42.676;23.352;2023-02-15T00:13:37;95983.53;;;1.44;72.26
56831;BME280;42713;42.676;23.352;2023-02-15T00:16:06;95977.53;;;1.35;72.29
56831;BME280;42713;42.676;23.352;2023-02-15T00:18:31;95984.31;;;1.36;72.50
56831;BME280;42713;42.676;23.352;2023-02-15T00:20:57;95989.50;;;1.45;72.17
56831;BME280;42713;42.676;23.352;2023-02-15T00:23:23;95979.66;;;1.40;72.56
56831;BME280;42713;42.676;23.352;2023-02-15T00:25:49;95988.34;;;1.39;72.43
56831;BME280;42713;42.676;23.352;2023-02-15T00:28:15;95984.34;;;1.45;72.08
56831;BME280;42713;42.676;23.352;2023-02-15T00:30:40;95981.59;;;1.46;72.25
56831;BME280;42713;42.676;23.352;2023-02-15T00:33:06;95987.59;;;1.47;72.10
56831;BME280;42713;42.676;23.352;2023-02-15T00:35:31;95989.84;;;1.50;72.06
56831;BME280;42713;42.676;23.352;2023-02-15T00:37:57;95987.06;;;1.43;71.73
56831;BME280;42713;42.676;23.352;2023-02-15T00:40:22;95990.00;;;1.48;71.56
56831;BME280;42713;42.676;23.352;2023-02-15T00:42:48;95988.19;;;1.40;72.18
56831;BME280;42713;42.676;23.352;2023-02-15T00:45:13;96001.28;;;1.47;72.11
56831;BME280;42713;42.676;23.352;2023-02-15T00:47:39;95998.22;;;1.44;71.79
56831;BME280;42713;42.676;23.352;2023-02-15T00:50:05;95995.13;;;1.40;71.90
56831;BME280;42713;42.676;23.352;2023-02-15T00:52:31;95984.31;;;1.36;72.23
56831;BME280;42713;42.676;23.352;2023-02-15T00:54:56;96006.75;;;1.44;71.78
56831;BME280;42713;42.676;23.352;2023-02-15T00:57:21;95984.31;;;1.36;71.90
56831;BME280;42713;42.676;23.352;2023-02-15T00:59:47;95994.75;;;1.35;72.31
56831;BME280;42713;42.676;23.352;2023-02-15T01:02:12;95999.47;;;1.39;72.09
56831;BME280;42713;42.676;23.352;2023-02-15T01:04:38;95977.53;;;1.35;71.77
56831;BME280;42713;42.676;23.352;2023-02-15T01:07:03;95990.97;;;1.47;72.10
56831;BME280;42713;42.676;23.352;2023-02-15T01:09:29;95984.47;;;1.43;72.07
56831;BME280;42713;42.676;23.352;2023-02-15T01:11:54;95985.44;;;1.42;71.86
56831;BME280;42713;42.676;23.352;2023-02-15T01:14:20;95985.13;;;1.45;71.58
56831;BME280;42713;42.676;23.352;2023-02-15T01:16:46;95982.22;;;1.40;71.78
56831;BME280;42713;42.676;23.352;2023-02-15T01:19:12;95976.91;;;1.42;71.81
56831;BME280;42713;42.676;23.352;2023-02-15T01:21:38;95977.19;;;1.38;72.20
56831;BME280;42713;42.676;23.352;2023-02-15T01:24:11;95979.94;;;1.37;72.02
56831;BME280;42713;42.676;23.352;2023-02-15T01:26:37;95986.88;;;1.36;72.16
56831;BME280;42713;42.676;23.352;2023-02-15T01:29:03;95977.69;;;1.42;72.12
56831;BME280;42713;42.676;23.352;2023-02-15T01:31:28;95973.19;;;1.44;71.97
56831;BME280;42713;42.676;23.352;2023-02-15T01:33:54;95975.56;;;1.37;72.24
56831;BME280;42713;42.676;23.352;2023-02-15T01:36:19;95975.22;;;1.32;72.21
56831;BME280;42713;42.676;23.352;2023-02-15T01:38:45;95974.28;;;1.33;72.77
56831;BME280;42713;42.676;23.352;2023-02-15T01:41:11;95960.22;;;1.28;72.65
56831;BME280;42713;42.676;23.352;2023-02-15T01:43:53;95967.78;;;1.29;72.99
56831;BME280;42713;42.676;23.352;2023-02-15T01:46:22;95966.56;;;1.15;72.96
56831;BME280;42713;42.676;23.352;2023-02-15T01:48:59;95957.53;;;1.11;73.65
56831;BME280;42713;42.676;23.352;2023-02-15T01:51:29;95952.22;;;1.13;73.80
56831;BME280;42713;42.676;23.352;2023-02-15T01:54:05;95958.88;;;1.23;73.43
56831;BME280;42713;42.676;23.352;2023-02-15T01:56:37;95951.31;;;1.22;73.40
56831;BME280;42713;42.676;23.352;2023-02-15T01:59:08;95955.00;;;1.19;73.11
56831;BME280;42713;42.676;23.352;2023-02-15T02:01:34;95954.84;;;1.21;73.40
56831;BME280;42713;42.676;23.352;2023-02-15T02:07:22;95953.22;;;1.20;73.11
56831;BME280;42713;42.676;23.352;2023-02-15T02:09:49;95950.84;;;1.27;73.43
56831;BME280;42713;42.676;23.352;2023-02-15T02:12:16;95947.47;;;1.26;72.95
56831;BME280;42713;42.676;23.352;2023-02-15T02:14:43;95945.97;;;1.23;73.02
56831;BME280;42713;42.676;23.352;2023-02-15T02:49:41;95964.03;;;1.23;73.92
56831;BME280;42713;42.676;23.352;2023-02-15T02:52:40;95973.13;;;1.28;73.98
56831;BME280;42713;42.676;23.352;2023-02-15T02:55:43;95971.84;;;1.32;74.00
56831;BME280;42713;42.676;23.352;2023-02-15T03:05:53;95981.16;;;1.24;73.94
56831;BME280;42713;42.676;23.352;2023-02-15T03:08:22;95985.22;;;1.27;74.22
56831;BME280;42713;42.676;23.352;2023-02-15T03:10:55;95995.09;;;1.32;73.71
56831;BME280;42713;42.676;23.352;2023-02-15T03:13:22;95995.34;;;1.20;74.28
56831;BME280;42713;42.676;23.352;2023-02-15T03:15:49;95992.59;;;1.22;74.32
56831;BME280;42713;42.676;23.352;2023-02-15T03:18:41;95989.09;;;1.31;74.13
56831;BME280;42713;42.676;23.352;2023-02-15T03:21:08;95995.22;;;1.30;73.84
56831;BME280;42713;42.676;23.352;2023-02-15T03:23:50;95988.25;;;1.22;73.99
56831;BME280;42713;42.676;23.352;2023-02-15T03:26:17;95994.38;;;1.21;74.67
56831;BME280;42713;42.676;23.352;2023-02-15T03:28:46;95991.03;;;1.29;74.57
56831;BME280;42713;42.676;23.352;2023-02-15T03:31:13;96002.97;;;1.30;74.29
56831;BME280;42713;42.676;23.352;2023-02-15T03:33:49;95993.97;;;1.34;74.31
56831;BME280;42713;42.676;23.352;2023-02-15T03:36:26;95982.81;;;1.34;74.26
56831;BME280;42713;42.676;23.352;2023-02-15T03:39:16;95987.34;;;1.32;74.83
56831;BME280;42713;42.676;23.352;2023-02-15T03:42:30;95996.22;;;1.37;74.56
56831;BME280;42713;42.676;23.352;2023-02-15T03:44:45;95988.34;;;1.39;74.41
56831;BME280;42713;42.676;23.352;2023-02-15T03:47:19;95991.72;;;1.39;74.44
56831;BME280;42713;42.676;23.352;2023-02-15T03:49:56;95991.69;;;1.31;74.73
56831;BME280;42713;42.676;23.352;2023-02-15T03:52:26;95985.25;;;1.35;74.94
56831;BME280;42713;42.676;23.352;2023-02-15T03:54:53;95983.47;;;1.36;74.77
56831;BME280;42713;42.676;23.352;2023-02-15T03:57:26;95985.06;;;1.29;75.17
56831;BME280;42713;42.676;23.352;2023-02-15T04:00:23;95987.97;;;1.34;75.07
56831;BME280;42713;42.676;23.352;2023-02-15T04:03:12;95995.84;;;1.24;75.14
56831;BME280;42713;42.676;23.352;2023-02-15T04:05:43;95982.56;;;1.19;75.34
56831;BME280;42713;42.676;23.352;2023-02-15T04:08:09;95979.41;;;1.25;74.97
56831;BME280;42713;42.676;23.352;2023-02-15T04:10:35;95992.31;;;1.25;75.07
56831;BME280;42713;42.676;23.352;2023-02-15T04:13:22;96000.72;;;1.27;75.18
56831;BME280;42713;42.676;23.352;2023-02-15T04:15:48;96010.41;;;1.33;75.08
56831;BME280;42713;42.676;23.352;2023-02-15T04:18:41;96003.16;;;1.37;74.82
56831;BME280;42713;42.676;23.352;2023-02-15T04:21:30;96013.78;;;1.34;75.18
56831;BME280;42713;42.676;23.352;2023-02-15T04:24:14;96015.41;;;1.35;75.22
56831;BME280;42713;42.676;23.352;2023-02-15T04:26:59;96014.13;;;1.31;74.95
56831;BME280;42713;42.676;23.352;2023-02-15T04:29:26;96022.69;;;1.39;74.79
56831;BME280;42713;42.676;23.352;2023-02-15T04:31:53;96027.78;;;1.49;74.62
56831;BME280;42713;42.676;23.352;2023-02-15T04:34:19;96025.53;;;1.54;74.19
56831;BME280;42713;42.676;23.352;2023-02-15T04:36:44;96023.41;;;1.50;74.53
56831;BME280;42713;42.676;23.352;2023-02-15T04:39:13;96033.31;;;1.63;74.38
56831;BME280;42713;42.676;23.352;2023-02-15T04:41:40;96033.47;;;1.61;73.94
56831;BME280;42713;42.676;23.352;2023-02-15T04:44:05;96033.47;;;1.61;73.97
56831;BME280;42713;42.676;23.352;2023-02-15T04:46:31;96028.97;;;1.63;74.51
56831;BME280;42713;42.676;23.352;2023-02-15T04:48:57;96021.03;;;1.57;74.05
56831;BME280;42713;42.676;23.352;2023-02-15T04:51:22;96030.91;;;1.61;74.02
56831;BME280;42713;42.676;23.352;2023-02-15T04:53:48;96033.97;;;1.65;74.28
56831;BME280;42713;42.676;23.352;2023-02-15T04:56:14;96038.16;;;1.58;74.31
56831;BME280;42713;42.676;23.352;2023-02-15T04:58:40;96037.03;;;1.60;74.65
56831;BME280;42713;42.676;23.352;2023-02-15T05:01:09;96044.09;;;1.58;74.62
56831;BME280;42713;42.676;23.352;2023-02-15T05:03:36;96040.94;;;1.64;74.12
56831;BME280;42713;42.676;23.352;2023-02-15T05:06:03;96050.31;;;1.65;74.00
56831;BME280;42713;42.676;23.352;2023-02-15T05:08:29;96042.69;;;1.64;74.07
56831;BME280;42713;42.676;23.352;2023-02-15T05:10:54;96040.78;;;1.66;74.37
56831;BME280;42713;42.676;23.352;2023-02-15T05:13:20;96047.09;;;1.71;73.85
56831;BME280;42713;42.676;23.352;2023-02-15T05:15:50;96055.47;;;1.65;74.18
56831;BME280;42713;42.676;23.352;2023-02-15T05:18:17;96053.84;;;1.64;74.22
56831;BME280;42713;42.676;23.352;2023-02-15T05:20:43;96057.59;;;1.70;74.24
56831;BME280;42713;42.676;23.352;2023-02-15T05:23:09;96056.63;;;1.71;74.39
56831;BME280;42713;42.676;23.352;2023-02-15T05:25:35;96058.56;;;1.69;73.97
56831;BME280;42713;42.676;23.352;2023-02-15T05:28:19;96070.97;;;1.65;73.92
56831;BME280;42713;42.676;23.352;2023-02-15T05:30:47;96067.84;;;1.62;73.99
56831;BME280;42713;42.676;23.352;2023-02-15T05:33:13;96073.84;;;1.62;74.45
56831;BME280;42713;42.676;23.352;2023-02-15T05:35:38;96072.06;;;1.63;74.54
56831;BME280;42713;42.676;23.352;2023-02-15T05:38:03;96079.81;;;1.63;74.56
56831;BME280;42713;42.676;23.352;2023-02-15T05:40:32;96072.06;;;1.63;74.30
56831;BME280;42713;42.676;23.352;2023-02-15T05:42:58;96073.25;;;1.77;74.22
56831;BME280;42713;42.676;23.352;2023-02-15T05:45:23;96078.59;;;1.75;73.86
56831;BME280;42713;42.676;23.352;2023-02-15T05:47:49;96080.69;;;1.71;74.11
56831;BME280;42713;42.676;23.352;2023-02-15T05:50:15;96080.13;;;1.60;74.06
56831;BME280;42713;42.676;23.352;2023-02-15T05:52:41;96084.84;;;1.64;74.53
56831;BME280;42713;42.676;23.352;2023-02-15T05:55:07;96075.59;;;1.62;74.46
56831;BME280;42713;42.676;23.352;2023-02-15T05:57:35;96078.84;;;1.64;74.59
56831;BME280;42713;42.676;23.352;2023-02-15T06:00:05;96095.50;;;1.69;74.07
56831;BME280;42713;42.676;23.352;2023-02-15T06:02:36;96079.50;;;1.66;74.45
56831;BME280;42713;42.676;23.352;2023-02-15T06:05:02;96077.94;;;1.73;74.19
56831;BME280;42713;42.676;23.352;2023-02-15T06:07:27;96073.94;;;1.79;73.95
56831;BME280;42713;42.676;23.352;2023-02-15T06:09:53;96089.13;;;1.82;73.68
56831;BME280;42713;42.676;23.352;2023-02-15T06:12:18;96079.00;;;1.89;73.29
56831;BME280;42713;42.676;23.352;2023-02-15T06:14:43;96073.78;;;1.80;73.24
56831;BME280;42713;42.676;23.352;2023-02-15T06:17:09;96078.28;;;1.78;72.72
56831;BME280;42713;42.676;23.352;2023-02-15T06:19:34;96077.16;;;1.81;73.26
56831;BME280;42713;42.676;23.352;2023-02-15T06:22:00;96085.72;;;1.81;73.23
56831;BME280;42713;42.676;23.352;2023-02-15T06:24:26;96089.28;;;1.80;73.33
56831;BME280;42713;42.676;23.352;2023-02-15T06:26:51;96086.50;;;1.74;73.46
56831;BME280;42713;42.676;23.352;2023-02-15T06:29:17;96095.09;;;1.82;73.07
56831;BME280;42713;42.676;23.352;2023-02-15T06:31:42;96093.03;;;1.86;73.44
56831;BME280;42713;42.676;23.352;2023-02-15T06:34:08;96085.13;;;1.88;73.12
56831;BME280;42713;42.676;23.352;2023-02-15T06:36:34;96082.72;;;1.86;72.99
56831;BME280;42713;42.676;23.352;2023-02-15T06:39:00;96084.97;;;1.89;72.78
56831;BME280;42713;42.676;23.352;2023-02-15T06:41:25;96082.53;;;1.88;72.69
56831;BME280;42713;42.676;23.352;2023-02-15T06:43:51;96085.78;;;1.90;72.95
56831;BME280;42713;42.676;23.352;2023-02-15T06:46:16;96084.81;;;1.91;72.67
56831;BME280;42713;42.676;23.352;2023-02-15T06:48:42;96082.75;;;1.94;72.59
56831;BME280;42713;42.676;23.352;2023-02-15T06:51:12;96086.63;;;1.98;72.85
56831;BME280;42713;42.676;23.352;2023-02-15T06:53:38;96081.78;;;1.95;73.05
56831;BME280;42713;42.676;23.352;2023-02-15T06:56:07;96058.47;;;1.87;72.82
56831;BME280;42713;42.676;23.352;2023-02-15T06:58:38;96063.81;;;1.94;72.41
56831;BME280;42713;42.676;23.352;2023-02-15T07:01:10;96078.44;;;2.11;72.08
56831;BME280;42713;42.676;23.352;2023-02-15T07:03:35;96067.75;;;2.06;71.88
56831;BME280;42713;42.676;23.352;2023-02-15T07:06:03;96101.22;;;2.16;71.43
56831;BME280;42713;42.676;23.352;2023-02-15T07:08:31;96077.16;;;2.07;71.37
56831;BME280;42713;42.676;23.352;2023-02-15T07:10:56;96082.16;;;2.09;71.65
56831;BME280;42713;42.676;23.352;2023-02-15T07:13:45;96083.13;;;2.16;71.44
56831;BME280;42713;42.676;23.352;2023-02-15T07:16:11;96099.31;;;2.18;71.15
56831;BME280;42713;42.676;23.352;2023-02-15T07:18:39;96103.03;;;2.15;70.93
56831;BME280;42713;42.676;23.352;2023-02-15T07:21:05;96086.16;;;2.03;71.16
56831;BME280;42713;42.676;23.352;2023-02-15T07:23:37;96078.72;;;2.00;71.42
56831;BME280;42713;42.676;23.352;2023-02-15T07:26:04;96097.84;;;2.15;71.14
56831;BME280;42713;42.676;23.352;2023-02-15T07:28:30;96095.16;;;2.25;71.04
56831;BME280;42713;42.676;23.352;2023-02-15T07:30:56;96085.88;;;2.14;70.77
56831;BME280;42713;42.676;23.352;2023-02-15T07:33:25;96070.53;;;2.13;70.48
56831;BME280;42713;42.676;23.352;2023-02-15T07:35:54;96084.88;;;2.42;70.11
56831;BME280;42713;42.676;23.352;2023-02-15T07:38:21;96103.16;;;2.48;69.54
56831;BME280;42713;42.676;23.352;2023-02-15T07:40:46;96071.41;;;2.30;69.50
56831;BME280;42713;42.676;23.352;2023-02-15T07:43:12;96063.03;;;2.44;69.43
56831;BME280;42713;42.676;23.352;2023-02-15T07:45:39;96073.38;;;2.36;69.14
56831;BME280;42713;42.676;23.352;2023-02-15T07:48:04;96077.56;;;2.29;68.87
56831;BME280;42713;42.676;23.352;2023-02-15T07:50:31;96073.06;;;2.39;69.12
56831;BME280;42713;42.676;23.352;2023-02-15T07:52:58;96068.78;;;2.22;69.32
56831;BME280;42713;42.676;23.352;2023-02-15T07:55:26;96066.66;;;2.17;69.53
56831;BME280;42713;42.676;23.352;2023-02-15T07:57:51;96061.69;;;2.24;69.83
56831;BME280;42713;42.676;23.352;2023-02-15T08:00:21;96073.88;;;2.40;69.51
56831;BME280;42713;42.676;23.352;2023-02-15T08:02:52;96072.75;;;2.51;69.50
56831;BME280;42713;42.676;23.352;2023-02-15T08:05:43;96079.53;;;2.52;69.51
56831;BME280;42713;42.676;23.352;2023-02-15T08:08:10;96076.66;;;2.55;69.25
56831;BME280;42713;42.676;23.352;2023-02-15T08:13:47;96084.72;;;2.60;69.17
56831;BME280;42713;42.676;23.352;2023-02-15T08:16:30;96081.19;;;2.61;69.46
56831;BME280;42713;42.676;23.352;2023-02-15T08:19:01;96076.84;;;2.61;69.29
56831;BME280;42713;42.676;23.352;2023-02-15T08:21:28;96099.00;;;2.72;68.75
56831;BME280;42713;42.676;23.352;2023-02-15T08:23:55;96087.03;;;2.71;68.47
56831;BME280;42713;42.676;23.352;2023-02-15T08:26:22;96086.06;;;2.64;68.47
56831;BME280;42713;42.676;23.352;2023-02-15T08:28:48;96091.03;;;2.49;68.42
56831;BME280;42713;42.676;23.352;2023-02-15T08:31:14;96089.38;;;2.40;69.40
56831;BME280;42713;42.676;23.352;2023-02-15T08:33:42;96100.69;;;2.39;69.30
56831;BME280;42713;42.676;23.352;2023-02-15T08:36:10;96092.25;;;2.37;69.42
56831;BME280;42713;42.676;23.352;2023-02-15T08:38:36;96095.41;;;2.48;69.50
56831;BME280;42713;42.676;23.352;2023-02-15T08:41:13;96090.25;;;2.57;69.12
56831;BME280;42713;42.676;23.352;2023-02-15T08:43:39;96092.50;;;2.60;68.72
56831;BME280;42713;42.676;23.352;2023-02-15T08:46:06;96096.75;;;2.69;68.46
56831;BME280;42713;42.676;23.352;2023-02-15T08:48:32;96086.69;;;2.58;67.68
56831;BME280;42713;42.676;23.352;2023-02-15T08:50:58;96091.22;;;2.56;67.73
56831;BME280;42713;42.676;23.352;2023-02-15T08:53:23;96094.47;;;2.66;67.97
56831;BME280;42713;42.676;23.352;2023-02-15T08:55:56;96093.16;;;2.70;67.37
56831;BME280;42713;42.676;23.352;2023-02-15T08:58:25;96096.09;;;2.75;66.69
56831;BME280;42713;42.676;23.352;2023-02-15T09:00:51;96098.53;;;2.85;66.41
56831;BME280;42713;42.676;23.352;2023-02-15T09:03:16;96099.06;;;2.89;66.20
56831;BME280;42713;42.676;23.352;2023-02-15T09:05:42;96090.16;;;3.00;65.91
56831;BME280;42713;42.676;23.352;2023-02-15T09:08:08;96100.03;;;3.21;64.49
56831;BME280;42713;42.676;23.352;2023-02-15T09:10:33;96104.56;;;3.27;64.05
56831;BME280;42713;42.676;23.352;2023-02-15T09:12:58;96088.53;;;3.23;64.17
56831;BME280;42713;42.676;23.352;2023-02-15T09:15:24;96081.75;;;3.31;63.76
56831;BME280;42713;42.676;23.352;2023-02-15T09:17:50;96093.09;;;3.21;64.24
56831;BME280;42713;42.676;23.352;2023-02-15T09:20:15;96092.75;;;3.24;64.45
56831;BME280;42713;42.676;23.352;2023-02-15T09:22:41;96096.16;;;3.33;63.37
56831;BME280;42713;42.676;23.352;2023-02-15T09:25:06;96085.97;;;3.40;63.57
56831;BME280;42713;42.676;23.352;2023-02-15T09:27:32;96096.78;;;3.52;63.32
56831;BME280;42713;42.676;23.352;2023-02-15T09:29:57;96084.66;;;3.52;62.83
56831;BME280;42713;42.676;23.352;2023-02-15T09:32:23;96101.16;;;3.43;62.76
56831;BME280;42713;42.676;23.352;2023-02-15T09:34:48;96089.50;;;3.47;62.74
56831;BME280;42713;42.676;23.352;2023-02-15T09:37:14;96100.19;;;3.36;63.23
56831;BME280;42713;42.676;23.352;2023-02-15T09:39:42;96093.56;;;3.41;63.04
56831;BME280;42713;42.676;23.352;2023-02-15T09:42:16;96095.16;;;3.51;63.37
56831;BME280;42713;42.676;23.352;2023-02-15T10:04:22;96073.16;;;3.55;62.67
56831;BME280;42713;42.676;23.352;2023-02-15T10:07:29;96090.28;;;3.72;62.45
56831;BME280;42713;42.676;23.352;2023-02-15T10:10:22;96088.47;;;3.89;61.96
56831;BME280;42713;42.676;23.352;2023-02-15T10:15:56;96066.94;;;3.81;61.88
56831;BME280;42713;42.676;23.352;2023-02-15T10:18:38;96074.53;;;3.82;61.56
56831;BME280;42713;42.676;23.352;2023-02-15T10:21:33;96065.13;;;3.89;60.98
56831;BME280;42713;42.676;23.352;2023-02-15T10:26:47;96063.00;;;4.01;60.29
56831;BME280;42713;42.676;23.352;2023-02-15T10:29:35;96057.91;;;4.16;60.32
56831;BME280;42713;42.676;23.352;2023-02-15T10:34:39;96062.31;;;4.16;59.88
56831;BME280;42713;42.676;23.352;2023-02-15T10:37:25;96061.19;;;4.10;60.18
56831;BME280;42713;42.676;23.352;2023-02-15T10:40:07;96046.19;;;4.29;60.22
56831;BME280;42713;42.676;23.352;2023-02-15T10:42:40;96051.34;;;4.37;59.37
56831;BME280;42713;42.676;23.352;2023-02-15T10:45:39;96055.59;;;4.30;59.48
56831;BME280;42713;42.676;23.352;2023-02-15T10:51:19;96065.47;;;4.34;59.11
56831;BME280;42713;42.676;23.352;2023-02-15T10:56:42;96061.63;;;4.22;60.01
56831;BME280;42713;42.676;23.352;2023-02-15T11:01:51;96034.72;;;4.23;59.59
56831;BME280;42713;42.676;23.352;2023-02-15T11:07:29;96023.13;;;4.02;60.00
56831;BME280;42713;42.676;23.352;2023-02-15T11:10:13;96053.22;;;4.12;59.91
56831;BME280;42713;42.676;23.352;2023-02-15T11:12:43;96026.28;;;4.21;59.71
56831;BME280;42713;42.676;23.352;2023-02-15T11:17:49;96042.19;;;4.18;60.08
56831;BME280;42713;42.676;23.352;2023-02-15T11:23:12;96035.50;;;4.24;60.24
56831;BME280;42713;42.676;23.352;2023-02-15T11:25:43;96047.13;;;4.36;59.66
56831;BME280;42713;42.676;23.352;2023-02-15T11:28:23;96038.56;;;4.35;59.63
56831;BME280;42713;42.676;23.352;2023-02-15T11:30:54;96046.47;;;4.34;59.84
56831;BME280;42713;42.676;23.352;2023-02-15T11:33:25;96019.69;;;4.42;59.42
56831;BME280;42713;42.676;23.352;2023-02-15T11:35:59;96037.69;;;4.43;58.70
56831;BME280;42713;42.676;23.352;2023-02-15T11:38:29;96030.72;;;4.44;58.56
56831;BME280;42713;42.676;23.352;2023-02-15T11:41:05;96022.47;;;4.40;58.64
56831;BME280;42713;42.676;23.352;2023-02-15T11:43:53;96038.66;;;4.42;58.69
56831;BME280;42713;42.676;23.352;2023-02-15T11:46:20;96009.31;;;4.42;59.34
56831;BME280;42713;42.676;23.352;2023-02-15T11:48:47;96001.34;;;4.43;59.02
56831;BME280;42713;42.676;23.352;2023-02-15T11:51:15;96012.09;;;4.40;59.32
56831;BME280;42713;42.676;23.352;2023-02-15T11:53:42;96004.69;;;4.29;59.06
56831;BME280;42713;42.676;23.352;2023-02-15T11:58:56;95984.16;;;4.19;59.33
56831;BME280;42713;42.676;23.352;2023-02-15T12:01:32;95981.69;;;4.26;59.31
56831;BME280;42713;42.676;23.352;2023-02-15T12:06:33;95982.53;;;4.49;58.88
56831;BME280;42713;42.676;23.352;2023-02-15T12:09:05;95973.47;;;4.68;58.91
56831;BME280;42713;42.676;23.352;2023-02-15T12:11:38;95980.84;;;4.80;58.03
56831;BME280;42713;42.676;23.352;2023-02-15T12:14:09;95971.66;;;4.92;57.56
56831;BME280;42713;42.676;23.352;2023-02-15T12:19:23;95964.66;;;4.93;56.04
56831;BME280;42713;42.676;23.352;2023-02-15T12:21:51;95970.94;;;4.98;57.11
56831;BME280;42713;42.676;23.352;2023-02-15T12:24:19;95979.59;;;5.14;56.17
56831;BME280;42713;42.676;23.352;2023-02-15T12:26:57;95962.03;;;5.16;56.51
56831;BME280;42713;42.676;23.352;2023-02-15T12:29:27;95959.69;;;5.06;55.99
56831;BME280;42713;42.676;23.352;2023-02-15T12:31:53;95950.94;;;5.22;56.22
56831;BME280;42713;42.676;23.352;2023-02-15T12:36:53;95963.91;;;5.07;55.04
56831;BME280;42713;42.676;23.352;2023-02-15T12:39:29;95948.88;;;5.18;55.73
56831;BME280;42713;42.676;23.352;2023-02-15T12:44:23;95934.41;;;5.00;55.74
56831;BME280;42713;42.676;23.352;2023-02-15T12:47:18;95926.56;;;5.08;55.75
56831;BME280;42713;42.676;23.352;2023-02-15T12:52:46;95930.41;;;5.27;56.23
56831;BME280;42713;42.676;23.352;2023-02-15T12:55:25;95924.97;;;5.22;55.66
56831;BME280;42713;42.676;23.352;2023-02-15T12:58:18;95921.09;;;5.33;55.58
56831;BME280;42713;42.676;23.352;2023-02-15T13:00:45;95920.56;;;5.68;54.85
56831;BME280;42713;42.676;23.352;2023-02-15T13:03:21;95933.22;;;5.56;54.57
56831;BME280;42713;42.676;23.352;2023-02-15T13:05:54;95926.09;;;5.65;54.43
56831;BME280;42713;42.676;23.352;2023-02-15T13:08:26;95937.81;;;5.90;54.24
56831;BME280;42713;42.676;23.352;2023-02-15T13:13:20;95915.03;;;6.29;53.52
56831;BME280;42713;42.676;23.352;2023-02-15T13:15:50;95923.22;;;6.48;52.46
56831;BME280;42713;42.676;23.352;2023-02-15T13:18:20;95913.44;;;6.50;51.68
56831;BME280;42713;42.676;23.352;2023-02-15T13:20:51;95919.31;;;6.80;51.36
56831;BME280;42713;42.676;23.352;2023-02-15T13:23:27;95904.91;;;7.13;50.66
56831;BME280;42713;42.676;23.352;2023-02-15T13:25:55;95904.50;;;7.09;50.38
56831;BME280;42713;42.676;23.352;2023-02-15T13:28:27;95909.13;;;6.85;51.19
56831;BME280;42713;42.676;23.352;2023-02-15T13:30:59;95922.25;;;6.99;52.20
56831;BME280;42713;42.676;23.352;2023-02-15T13:33:33;95904.50;;;7.09;55.15
56831;BME280;42713;42.676;23.352;2023-02-15T13:36:19;95921.50;;;7.40;52.66
56831;BME280;42713;42.676;23.352;2023-02-15T13:39:03;95912.69;;;7.41;52.32
56831;BME280;42713;42.676;23.352;2023-02-15T13:44:47;95920.19;;;6.66;53.24
56831;BME280;42713;42.676;23.352;2023-02-15T14:05:17;95937.72;;;6.79;53.39
56831;BME280;42713;42.676;23.352;2023-02-15T14:16:45;95958.59;;;6.85;53.14
56831;BME280;42713;42.676;23.352;2023-02-15T14:19:26;95938.44;;;6.94;53.62
56831;BME280;42713;42.676;23.352;2023-02-15T14:24:42;95947.41;;;6.85;53.05
56831;BME280;42713;42.676;23.352;2023-02-15T14:29:51;95968.03;;;6.87;52.23
56831;BME280;42713;42.676;23.352;2023-02-15T14:32:29;95946.38;;;6.86;53.92
56831;BME280;42713;42.676;23.352;2023-02-15T14:34:59;95956.94;;;6.78;53.51
56831;BME280;42713;42.676;23.352;2023-02-15T14:43:07;95944.72;;;6.78;53.05
56831;BME280;42713;42.676;23.352;2023-02-15T14:58:56;95942.13;;;6.78;53.04
56831;BME280;42713;42.676;23.352;2023-02-15T15:03:58;95965.06;;;7.18;52.40
56831;BME280;42713;42.676;23.352;2023-02-15T15:06:30;95946.19;;;7.16;52.93
56831;BME280;42713;42.676;23.352;2023-02-15T15:09:00;95936.19;;;7.13;51.42
56831;BME280;42713;42.676;23.352;2023-02-15T15:11:41;95954.59;;;7.11;52.34
56831;BME280;42713;42.676;23.352;2023-02-15T15:14:09;95957.19;;;7.11;52.21
56831;BME280;42713;42.676;23.352;2023-02-15T15:19:10;95954.22;;;7.43;51.81
56831;BME280;42713;42.676;23.352;2023-02-15T15:41:17;95974.97;;;6.58;53.49
56831;BME280;42713;42.676;23.352;2023-02-15T15:49:26;95987.81;;;6.22;54.04
56831;BME280;42713;42.676;23.352;2023-02-15T15:51:54;95978.81;;;6.03;54.35
56831;BME280;42713;42.676;23.352;2023-02-15T15:54:21;95975.59;;;6.01;55.20
56831;BME280;42713;42.676;23.352;2023-02-15T15:56:51;95973.97;;;6.00;55.06
56831;BME280;42713;42.676;23.352;2023-02-15T15:59:27;95986.25;;;5.61;56.12
56831;BME280;42713;42.676;23.352;2023-02-15T16:01:53;95979.53;;;5.52;56.42
56831;BME280;42713;42.676;23.352;2023-02-15T16:04:27;95983.13;;;5.66;56.37
56831;BME280;42713;42.676;23.352;2023-02-15T16:06:56;95983.56;;;5.55;56.53
56831;BME280;42713;42.676;23.352;2023-02-15T16:09:24;95987.94;;;5.54;57.11
56831;BME280;42713;42.676;23.352;2023-02-15T16:11:52;95983.38;;;5.56;56.67
56831;BME280;42713;42.676;23.352;2023-02-15T16:14:30;95988.75;;;5.40;57.91
56831;BME280;42713;42.676;23.352;2023-02-15T16:16:58;95991.44;;;5.32;57.59
56831;BME280;42713;42.676;23.352;2023-02-15T16:19:34;95988.91;;;5.23;57.90
56831;BME280;42713;42.676;23.352;2023-02-15T16:22:02;95990.78;;;5.14;58.54
56831;BME280;42713;42.676;23.352;2023-02-15T16:27:35;95984.47;;;4.94;58.87
56831;BME280;42713;42.676;23.352;2023-02-15T16:32:46;95990.47;;;4.94;59.25
56831;BME280;42713;42.676;23.352;2023-02-15T16:35:18;96001.59;;;5.03;58.60
56831;BME280;42713;42.676;23.352;2023-02-15T16:37:44;95990.84;;;5.06;58.39